Airfield :
LOGIN :

Register | Disclaimer

   EN    FR    IT 

 










Legend :    VFR   Marginal VFR   IFR   Intensive IFR   Very Intensive IFR
Visi :
Ceiling :
>= 8 km
>= 3000ft
5 to 8 km
1000 to 3000 ft
1500m to 5 km
500 to 1000 ft
800 to 1500m
200 to 500 ft
< 800m
< 200 ft
Symbols :   Thunderstorms  Fog  Heavy snow  Heavy precipitations  Wind > 20 kt
SIGMETs :     Misc.  Thunderstorms  Icing  Turbulence  Mountain Waves  Volcanic Ashes






- Airport Elevation : 24 ft
- IATA code : IBZ


LEIB - Ibiza

CURRENT METAR :
  • 071030Z 21011KT 170V240 CAVOK 21/18 Q1017 NOSIG

EXPIRED METARs :
  • 071000Z 21011KT 170V240 CAVOK 21/18 Q1017 NOSIG
  • 070930Z 22010KT CAVOK 21/18 Q1017 NOSIG
  • 070900Z 22011KT 190V260 9999 FEW006 20/18 Q1017 NOSIG
  • 070830Z 23012KT 200V260 9999 FEW006 20/18 Q1017 NOSIG
  • 070800Z 23010KT 190V260 9999 FEW006 SCT008 19/18 Q1017 NOSIG

TAF TAF LEIB
Valid from the 07 at 09:00 until the 08 at 09:00 UTC


070800Z 0709/0809 21010KT 9999 FEW015 TX26/0712Z TN14/0806Z
BECMG 0710/0712 02006KT
BECMG 0712/0714 12010KT
BECMG 0718/0720 VRB03KT
PROB40
TEMPO 0723/0809 2000 BR BKN004



MET'MAP, your aeronautical weather chart ! - Copyright ORBIFLY December 2007 - Disclaimer

ORBIFLY MET'MAP TEAM :

Programming & Development : Alexandra Zaïnal
Concept & original design : Baudouin d'Aumeries
Assistance for programming : Marc-Olivier Méhu
Technical & hardware support : Manuel Goepfert

Contact : metmap@orbifly.com




SOURCES & CREDITS :

   NOAA